メインページ
METAR-TAF:

METAR-TAF

空港 :

コンゴーニャス空港

サンパウロ, サンパウロ州, ブラジル

緯度: 23-37S, 経度: 046-39W, 海抜: 803m

現時点の気象観測

当レポートは1時間25分前の14:00(UTC)に作成
北西の風 9kt、西からの間で変化する
気温 28°C
湿度 58%
気圧 1020 hPa
視程10km以上
1,500メートル以下は雲なし、積乱雲なし

METAR: SBSP 181400Z 32009KT 280V360 CAVOK 28/19 Q1020

時間: 13:25 (15:25 UTC)

予報

当レポートは6時間3分前の09:22(UTC)に作成
予報は18日の 12時(UTC)から 19日の 12時(UTC)まで有効
北/北東の風 7kt
視程10km以上
高度4000ftの雲は散在している
18日の 12時(UTC)から 18日の 14時(UTC)まで徐々に
北西の風 10kt
18日の 14時(UTC)から 18日の 16時(UTC)まで徐々に
高度4000ftの千切れ雲あり
確率 40%
18日の 20時(UTC)から 18日の 24時(UTC)まで
の風 10kt
高度3000ftの千切れ雲あり
高度4000ftの雲はほとんどない, 積乱雲.
激しい雷雨, 雨
確率 30%
19日の 00時(UTC)から 19日の 01時(UTC)まで
高度2000ftの千切れ雲あり
高度4000ftの雲はほとんどない, 積乱雲.
激しい雷雨, 雨
19日の 01時(UTC)から 19日の 03時(UTC)まで徐々に
東/北東の風 3kt
視程10km以上
1,500メートル以下は雲なし、積乱雲なし

TAF: SBSP 180922Z 1812/1912 03007KT 9999 SCT040 TX30/1817Z TN22/1909Z BECMG 1812/1814 32010KT BECMG 1814/1816 BKN040 PROB40 1820/1824 18010KT TSRA BKN030 FEW040CB PROB30 1900/1901 TSRA BKN020 FEW040CB BECMG 1901/1903 06003KT CAVOK RMK PGQ

4,000以上の空港の気象観測と天気予報(METAR報とTAF報)

利用可能な観測所は地図上に黄色い丸と赤い丸で示す。

丸の上にカーソルを重ねると観測所名を参照できる。

次にクリックすると気象観測と天気予報を参照できる。

マップの切り替え:黒色「×」印の緑ボタンをクリックして拡大、「-」印の緑ボタンをクリックして縮小、緑色の三角印をクリックして隣りの地図に切り替え


METAR-TAF: